createdAt,value
2018-06-13T00:01:00.735Z,66.13
2018-06-13T00:02:03.608Z,66.35
2018-06-13T00:03:06.395Z,65.68
2018-06-13T00:04:09.197Z,66.08
2018-06-13T00:05:15.523Z,66.72
2018-06-13T00:06:18.304Z,66.21
2018-06-13T00:07:21.126Z,65.83
2018-06-13T00:08:23.913Z,65.86
2018-06-13T00:09:27.690Z,65.87
2018-06-13T00:10:31.136Z,66.41
2018-06-13T00:11:34.201Z,66.37
2018-06-13T00:12:37.013Z,67.05
2018-06-13T00:13:39.817Z,67.04
2018-06-13T00:14:43.497Z,67.36
2018-06-13T00:15:46.307Z,68.16
2018-06-13T00:16:50.123Z,67.48
2018-06-13T00:17:54.570Z,68.22
2018-06-13T00:18:58.266Z,67.85
2018-06-13T00:20:02.692Z,67.94
2018-06-13T00:21:06.178Z,68.58
2018-06-13T00:22:08.987Z,68.72
2018-06-13T00:23:11.833Z,69.72
2018-06-13T00:24:14.957Z,69.04
2018-06-13T00:25:17.808Z,69.05
2018-06-13T00:26:20.620Z,69.31
2018-06-13T00:27:24.452Z,70.36
2018-06-13T00:28:27.197Z,70.08
2018-06-13T00:29:30.768Z,70.67
2018-06-13T00:30:34.762Z,70.58
2018-06-13T00:31:38.063Z,70.67
2018-06-13T00:32:41.830Z,70.19
2018-06-13T00:33:45.409Z,69.99
2018-06-13T00:34:49.179Z,69.70
2018-06-13T00:35:51.986Z,70.80
2018-06-13T00:36:55.126Z,70.45
2018-06-13T00:37:57.945Z,69.52
2018-06-13T00:39:00.739Z,69.40
2018-06-13T00:40:04.181Z,69.40
2018-06-13T00:41:06.976Z,70.21
2018-06-13T00:42:09.776Z,70.26
2018-06-13T00:43:13.638Z,70.60
2018-06-13T00:44:16.440Z,70.48
2018-06-13T00:45:19.236Z,70.40
2018-06-13T00:46:22.080Z,70.47
2018-06-13T00:47:24.915Z,69.90
2018-06-13T00:48:28.366Z,69.85
2018-06-13T00:49:31.464Z,69.85
2018-06-13T00:50:34.317Z,69.56
2018-06-13T00:51:37.150Z,69.39
2018-06-13T00:52:39.952Z,70.19
2018-06-13T00:53:42.753Z,69.67
2018-06-13T00:54:46.091Z,69.88
2018-06-13T00:55:49.164Z,69.25
2018-06-13T00:56:51.951Z,69.87
2018-06-13T00:57:54.769Z,69.71
2018-06-13T00:58:57.628Z,69.34
2018-06-13T01:00:00.433Z,69.60
2018-06-13T01:01:04.062Z,68.93
2018-06-13T01:02:07.191Z,68.90
2018-06-13T01:03:10.704Z,69.52
2018-06-13T01:04:13.470Z,69.30
2018-06-13T01:05:16.292Z,69.31
2018-06-13T01:06:19.115Z,69.61
2018-06-13T01:07:21.944Z,69.57
2018-06-13T01:08:25.085Z,69.02
2018-06-13T01:09:27.863Z,69.36
2018-06-13T01:10:31.377Z,69.27
2018-06-13T01:11:34.238Z,69.71
2018-06-13T01:12:37.045Z,69.63
2018-06-13T01:13:40.838Z,69.84
2018-06-13T01:14:43.936Z,69.35
2018-06-13T01:15:46.723Z,69.08
2018-06-13T01:16:49.556Z,70.05
2018-06-13T01:17:52.386Z,69.68
2018-06-13T01:18:55.175Z,69.59
2018-06-13T01:19:58.893Z,69.45
2018-06-13T01:21:02.924Z,69.29
2018-06-13T01:22:05.719Z,69.24
2018-06-13T01:23:08.529Z,68.95
2018-06-13T01:24:11.333Z,69.20
2018-06-13T01:25:15.146Z,68.77
2018-06-13T01:26:21.524Z,68.95
2018-06-13T01:27:25.613Z,68.73
2018-06-13T01:29:43.420Z,69.12
2018-06-13T01:30:46.291Z,68.69
2018-06-13T01:31:49.834Z,67.93
2018-06-13T01:32:52.809Z,68.56
2018-06-13T01:33:56.036Z,67.76
2018-06-13T01:34:59.056Z,68.05
2018-06-13T01:36:02.039Z,68.12
2018-06-13T01:37:05.010Z,68.52
2018-06-13T01:38:08.802Z,68.08
2018-06-13T01:39:12.806Z,68.14
2018-06-13T01:40:18.998Z,68.17
2018-06-13T01:41:21.946Z,68.43
2018-06-13T01:42:25.669Z,68.99
2018-06-13T01:43:28.568Z,68.98
2018-06-13T01:44:31.467Z,69.28
2018-06-13T01:45:34.334Z,69.59
2018-06-13T01:46:37.557Z,69.53
2018-06-13T01:47:40.449Z,69.27
2018-06-13T01:48:43.379Z,69.56
2018-06-13T01:49:46.272Z,69.46
2018-06-13T01:50:49.245Z,68.72
2018-06-13T01:51:52.764Z,69.24
2018-06-13T01:52:56.733Z,68.70
2018-06-13T01:53:59.629Z,69.03
2018-06-13T01:55:02.661Z,69.14
2018-06-13T01:56:05.580Z,69.29
2018-06-13T01:57:08.511Z,69.33
2018-06-13T01:58:11.404Z,69.29
2018-06-13T01:59:14.636Z,69.57
2018-06-13T02:00:17.593Z,69.64
2018-06-13T02:01:20.588Z,69.65
2018-06-13T02:02:24.537Z,69.24
2018-06-13T02:03:27.432Z,69.46
2018-06-13T02:04:30.326Z,69.84
2018-06-13T02:05:34.311Z,69.34
2018-06-13T02:06:37.233Z,69.82
2018-06-13T02:07:40.122Z,70.12
2018-06-13T02:08:43.339Z,69.96
2018-06-13T02:09:46.244Z,69.57
2018-06-13T02:10:49.214Z,69.55
2018-06-13T02:11:52.607Z,70.54
2018-06-13T02:12:55.553Z,69.71
2018-06-13T02:13:58.621Z,70.33
2018-06-13T02:15:01.578Z,70.53
2018-06-13T02:16:04.524Z,69.80
2018-06-13T02:17:07.392Z,70.61
2018-06-13T02:18:10.621Z,70.44
2018-06-13T02:19:13.617Z,71.21
2018-06-13T02:20:16.593Z,70.97
2018-06-13T02:21:19.570Z,71.15
2018-06-13T02:22:22.601Z,70.99
2018-06-13T02:23:25.734Z,71.29
2018-06-13T02:24:29.055Z,70.82
2018-06-13T02:25:32.507Z,70.99
2018-06-13T02:26:35.658Z,71.18
2018-06-13T02:27:38.662Z,71.91
2018-06-13T02:28:42.094Z,71.79
2018-06-13T02:29:44.958Z,72.30
2018-06-13T02:30:48.510Z,71.64
2018-06-13T02:31:51.402Z,71.85
2018-06-13T02:32:54.397Z,72.06
2018-06-13T02:33:57.358Z,71.92
2018-06-13T02:35:00.306Z,72.16
2018-06-13T02:36:03.187Z,71.79
2018-06-13T02:37:07.405Z,71.70
2018-06-13T02:38:10.273Z,71.80
2018-06-13T02:39:13.141Z,71.66
2018-06-13T02:40:16.050Z,71.31
2018-06-13T02:41:18.895Z,71.61
2018-06-13T02:42:21.803Z,72.07
2018-06-13T02:43:26.030Z,72.03
2018-06-13T02:44:28.924Z,72.03
2018-06-13T02:45:31.923Z,72.26
2018-06-13T02:46:35.124Z,72.12
2018-06-13T02:47:39.068Z,71.97
2018-06-13T02:48:42.068Z,72.26
2018-06-13T02:49:45.305Z,72.52
2018-06-13T02:50:48.208Z,72.79
2018-06-13T02:51:51.752Z,72.60
2018-06-13T02:52:54.754Z,72.43
2018-06-13T02:53:58.819Z,72.30
2018-06-13T02:55:04.127Z,72.64
2018-06-13T02:56:07.355Z,72.28
2018-06-13T02:57:11.233Z,72.92
2018-06-13T02:58:14.153Z,72.74
2018-06-13T02:59:17.088Z,73.09
2018-06-13T03:00:20.006Z,72.70
2018-06-13T03:01:22.985Z,72.48
2018-06-13T03:02:26.272Z,72.34
2018-06-13T03:03:30.098Z,72.24
2018-06-13T03:04:32.982Z,72.08
2018-06-13T03:05:35.960Z,72.69
2018-06-13T03:06:38.901Z,72.11
2018-06-13T03:07:41.856Z,72.74
2018-06-13T03:08:45.293Z,73.02
2018-06-13T03:09:48.214Z,73.05
2018-06-13T03:10:52.707Z,72.04
2018-06-13T03:11:55.555Z,72.97
2018-06-13T03:12:58.502Z,72.67
2018-06-13T03:14:01.485Z,72.16
2018-06-13T03:15:05.581Z,72.28
2018-06-13T03:16:08.616Z,72.20
2018-06-13T03:17:11.556Z,72.31
2018-06-13T03:18:14.430Z,72.52
2018-06-13T03:19:17.403Z,72.16
2018-06-13T03:20:20.353Z,71.18
2018-06-13T03:21:23.622Z,71.97
2018-06-13T03:22:26.619Z,71.54
2018-06-13T03:23:29.602Z,72.10
2018-06-13T03:24:32.498Z,71.77
2018-06-13T03:25:35.459Z,72.24
2018-06-13T03:26:38.588Z,71.82
2018-06-13T03:27:41.814Z,71.56
2018-06-13T03:28:44.769Z,71.88
2018-06-13T03:29:47.621Z,71.46
2018-06-13T03:30:50.549Z,71.37
2018-06-13T03:31:53.436Z,71.86
2018-06-13T03:32:56.691Z,71.56
2018-06-13T03:33:59.904Z,72.07
2018-06-13T03:35:02.823Z,71.79
2018-06-13T03:36:05.741Z,71.93
2018-06-13T03:37:08.740Z,71.31
2018-06-13T03:38:11.714Z,71.55
2018-06-13T03:39:14.585Z,70.83
2018-06-13T03:40:17.822Z,71.29
2018-06-13T03:41:20.885Z,72.51
2018-06-13T03:42:24.293Z,72.17
2018-06-13T03:43:27.305Z,72.49
2018-06-13T03:44:30.275Z,72.36
2018-06-13T03:45:33.347Z,72.31
2018-06-13T03:46:36.557Z,71.72
2018-06-13T03:47:39.436Z,71.69
2018-06-13T03:48:42.525Z,72.11
2018-06-13T03:49:45.457Z,72.00
2018-06-13T03:50:49.068Z,71.97
2018-06-13T03:51:51.992Z,72.10
2018-06-13T03:52:55.262Z,72.05
2018-06-13T03:53:58.267Z,71.85
2018-06-13T03:55:01.278Z,71.53
2018-06-13T03:56:04.182Z,71.87
2018-06-13T03:57:07.070Z,71.15
2018-06-13T03:58:10.068Z,71.67
2018-06-13T03:59:13.392Z,70.73
2018-06-13T04:00:16.248Z,71.49
2018-06-13T04:01:19.239Z,72.50
2018-06-13T04:02:22.135Z,72.66
2018-06-13T04:03:25.053Z,72.30
2018-06-13T04:04:28.008Z,72.23
2018-06-13T04:05:31.266Z,71.91
2018-06-13T04:06:34.131Z,72.41
2018-06-13T04:07:37.290Z,71.77
2018-06-13T04:08:40.257Z,72.23
2018-06-13T04:09:43.267Z,72.37
2018-06-13T04:10:46.212Z,71.90
2018-06-13T04:11:49.184Z,72.86
2018-06-13T04:12:52.185Z,72.24
2018-06-13T04:13:55.092Z,71.94
2018-06-13T04:14:58.105Z,72.69
2018-06-13T04:16:01.065Z,71.51
2018-06-13T04:17:05.725Z,71.90
2018-06-13T04:18:09.780Z,71.70
2018-06-13T04:19:12.891Z,72.28
2018-06-13T04:20:15.979Z,71.86
2018-06-13T04:21:20.025Z,71.91
2018-06-13T04:22:23.633Z,72.25
2018-06-13T04:23:27.880Z,72.40
2018-06-13T04:24:31.019Z,72.27
2018-06-13T04:25:34.730Z,71.79
2018-06-13T04:26:38.149Z,71.96
2018-06-13T04:27:41.088Z,72.40
2018-06-13T04:28:43.962Z,72.05
2018-06-13T04:29:47.206Z,71.72
2018-06-13T04:30:50.225Z,72.28
2018-06-13T04:31:53.178Z,72.56
2018-06-13T04:32:57.229Z,71.85
2018-06-13T04:34:00.134Z,72.47
2018-06-13T04:35:03.383Z,71.25
2018-06-13T04:36:07.082Z,71.87
2018-06-13T04:37:11.038Z,71.62
2018-06-13T04:38:14.824Z,71.90
2018-06-13T04:39:20.707Z,72.04
2018-06-13T04:40:23.599Z,72.25
2018-06-13T04:41:26.956Z,71.69
2018-06-13T04:42:31.533Z,72.15
2018-06-13T04:43:34.430Z,71.25
2018-06-13T04:44:51.321Z,71.39
2018-06-13T04:46:01.476Z,72.19
2018-06-13T04:47:06.559Z,71.91
2018-06-13T04:48:10.113Z,72.36
2018-06-13T04:49:20.100Z,72.18
2018-06-13T04:50:28.396Z,72.12
2018-06-13T04:52:48.251Z,71.98
2018-06-13T04:53:52.127Z,71.72
2018-06-13T04:54:55.201Z,71.38
2018-06-13T04:56:00.831Z,71.73
2018-06-13T04:57:05.004Z,71.49
2018-06-13T04:58:14.379Z,71.07
2018-06-13T04:59:20.820Z,71.37
2018-06-13T05:00:23.816Z,71.12
2018-06-13T05:01:43.470Z,70.36
2018-06-13T05:02:51.717Z,70.83
2018-06-13T05:03:58.537Z,70.75
2018-06-13T05:05:03.165Z,71.06
2018-06-13T05:06:07.158Z,70.92
2018-06-13T05:07:10.738Z,70.54
2018-06-13T05:08:17.809Z,71.08
2018-06-13T05:09:21.511Z,71.43
2018-06-13T05:15:31.838Z,70.52
2018-06-13T05:16:36.135Z,70.03
2018-06-13T05:17:39.084Z,70.04
2018-06-13T05:18:42.199Z,70.72
2018-06-13T05:19:46.369Z,70.45
2018-06-13T05:20:53.036Z,70.47
2018-06-13T05:21:57.283Z,70.31
2018-06-13T05:23:00.324Z,69.55
2018-06-13T05:24:05.382Z,69.65
2018-06-13T05:25:08.740Z,69.03
2018-06-13T05:26:11.910Z,68.78
2018-06-13T05:27:16.979Z,68.93
2018-06-13T05:28:20.755Z,68.66
2018-06-13T05:29:25.548Z,68.98
2018-06-13T05:30:28.669Z,69.16
2018-06-13T05:31:32.152Z,69.59
2018-06-13T05:32:35.336Z,69.40
2018-06-13T05:33:38.260Z,69.58
2018-06-13T05:34:41.569Z,69.10
2018-06-13T05:35:47.443Z,69.64
2018-06-13T05:36:50.489Z,69.63
2018-06-13T05:37:53.727Z,69.14
2018-06-13T05:38:56.831Z,69.23
2018-06-13T05:40:01.902Z,69.37
2018-06-13T05:41:10.332Z,68.88
2018-06-13T05:42:25.483Z,68.67
2018-06-13T05:43:29.829Z,68.42
2018-06-13T05:44:33.310Z,68.35
2018-06-13T05:45:42.730Z,68.68
2018-06-13T05:46:46.480Z,68.42
2018-06-13T05:47:51.614Z,68.37
2018-06-13T05:49:09.643Z,68.03
2018-06-13T05:50:14.765Z,68.28
2018-06-13T05:51:17.892Z,68.18
2018-06-13T05:52:26.107Z,67.43
2018-06-13T05:53:29.460Z,67.03
2018-06-13T05:57:08.322Z,67.75
2018-06-13T05:58:15.082Z,67.46
2018-06-13T05:59:26.189Z,67.07
2018-06-13T06:00:39.292Z,67.23
2018-06-13T06:01:42.545Z,67.34
2018-06-13T06:02:48.325Z,67.20
2018-06-13T06:03:52.644Z,67.91
2018-06-13T06:04:56.434Z,67.49
2018-06-13T06:06:01.048Z,67.08
2018-06-13T06:07:06.118Z,66.51
2018-06-13T06:08:11.399Z,67.09
2018-06-13T06:09:20.787Z,67.20
2018-06-13T06:10:25.423Z,66.51
2018-06-13T06:11:35.391Z,66.74
2018-06-13T06:12:39.789Z,66.74
2018-06-13T06:13:44.578Z,66.66
2018-06-13T06:14:54.145Z,66.50
2018-06-13T06:15:57.801Z,66.48
2018-06-13T06:17:03.122Z,66.70
2018-06-13T06:18:07.056Z,66.82
2018-06-13T06:20:30.786Z,66.56
2018-06-13T06:21:34.621Z,65.96
2018-06-13T06:22:40.634Z,65.54
2018-06-13T06:23:46.760Z,65.53
2018-06-13T06:24:53.544Z,65.16
2018-06-13T06:25:58.183Z,65.28
2018-06-13T06:27:01.197Z,65.17
2018-06-13T06:28:05.079Z,65.26
2018-06-13T06:29:10.417Z,65.87
2018-06-13T06:30:15.019Z,66.15
2018-06-13T06:31:18.665Z,65.28
2018-06-13T06:32:22.201Z,65.00
2018-06-13T06:33:26.778Z,64.69
2018-06-13T06:34:29.953Z,64.95
2018-06-13T06:35:34.548Z,65.30
2018-06-13T06:36:38.258Z,64.58
2018-06-13T06:37:44.705Z,65.02
2018-06-13T06:38:52.294Z,64.16
2018-06-13T06:39:57.293Z,64.18
2018-06-13T06:41:00.266Z,64.75
2018-06-13T06:42:05.365Z,64.49
2018-06-13T06:43:09.430Z,64.53
2018-06-13T06:44:13.381Z,63.75
2018-06-13T06:45:19.082Z,64.19
2018-06-13T06:46:22.103Z,63.74
2018-06-13T06:47:25.141Z,63.57
2018-06-13T06:48:29.989Z,63.50
2018-06-13T06:49:32.952Z,63.79
2018-06-13T06:50:35.933Z,63.79
2018-06-13T06:51:44.279Z,63.84
2018-06-13T06:52:47.485Z,63.68
2018-06-13T06:53:52.544Z,63.57
2018-06-13T06:55:00.076Z,63.69
2018-06-13T06:56:05.751Z,64.50
2018-06-13T06:57:09.867Z,63.82
2018-06-13T06:58:18.909Z,64.22
2018-06-13T06:59:22.684Z,63.51
2018-06-13T07:00:27.568Z,64.06
2018-06-13T07:01:34.020Z,63.73
2018-06-13T07:02:38.356Z,64.05
2018-06-13T07:03:41.379Z,63.07
2018-06-13T07:04:48.025Z,63.76
2018-06-13T07:05:51.066Z,63.25
2018-06-13T07:06:55.034Z,63.47
2018-06-13T07:08:03.724Z,64.01
2018-06-13T07:09:10.366Z,64.08
2018-06-13T07:10:14.355Z,63.66
2018-06-13T07:11:20.523Z,62.81
2018-06-13T07:12:24.312Z,62.95
2018-06-13T07:13:27.413Z,63.31
2018-06-13T07:14:32.122Z,63.66
2018-06-13T07:15:35.197Z,63.13
2018-06-13T07:16:38.197Z,62.99
2018-06-13T07:17:43.790Z,62.56
2018-06-13T07:18:47.257Z,62.01
2018-06-13T07:19:50.590Z,61.97
2018-06-13T07:21:03.025Z,60.96
2018-06-13T07:22:07.319Z,61.11
2018-06-13T07:23:11.464Z,61.69
2018-06-13T07:24:17.739Z,60.95
2018-06-13T07:25:20.782Z,61.12
2018-06-13T07:26:23.820Z,60.96
2018-06-13T07:27:28.191Z,60.80
2018-06-13T07:28:34.776Z,61.02
2018-06-13T07:29:40.505Z,61.34
2018-06-13T07:30:45.439Z,61.27
2018-06-13T07:31:49.493Z,61.24
2018-06-13T07:32:53.500Z,60.74
2018-06-13T07:33:57.594Z,60.76
2018-06-13T07:35:03.389Z,60.90
2018-06-13T07:36:06.591Z,61.11
2018-06-13T07:37:11.560Z,61.19
2018-06-13T07:38:15.463Z,60.80
2018-06-13T07:39:20.170Z,60.23
2018-06-13T07:40:23.363Z,60.44
2018-06-13T07:41:26.386Z,60.54
2018-06-13T07:42:37.814Z,60.22
2018-06-13T07:43:43.650Z,60.33
2018-06-13T07:44:51.566Z,60.47
2018-06-13T07:46:00.377Z,60.62
2018-06-13T07:47:04.654Z,60.26
2018-06-13T07:48:13.674Z,60.00
2018-06-13T07:49:22.922Z,59.58
2018-06-13T07:50:25.973Z,59.27
2018-06-13T07:51:29.975Z,59.47
2018-06-13T07:52:36.714Z,60.04
2018-06-13T07:53:41.281Z,59.89
2018-06-13T07:56:01.430Z,60.15
2018-06-13T07:57:05.109Z,60.73
2018-06-13T07:58:08.430Z,60.27
2018-06-13T07:59:15.413Z,59.78
2018-06-13T08:00:18.549Z,59.91
2018-06-13T08:02:35.263Z,59.98
2018-06-13T08:03:44.112Z,60.50
2018-06-13T08:04:47.736Z,60.33
2018-06-13T08:08:52.302Z,61.82
2018-06-13T08:09:59.210Z,62.06
2018-06-13T08:11:09.826Z,62.41
2018-06-13T08:12:17.729Z,62.83
2018-06-13T08:13:22.749Z,62.49
2018-06-13T08:14:26.550Z,63.23
2018-06-13T08:15:29.525Z,62.91
2018-06-13T08:16:47.060Z,62.94
2018-06-13T08:17:50.470Z,63.50
2018-06-13T08:18:53.917Z,63.09
2018-06-13T08:19:57.822Z,63.94
2018-06-13T08:21:01.382Z,64.47
2018-06-13T08:22:04.815Z,64.82
2018-06-13T08:23:08.033Z,65.49
2018-06-13T08:24:11.368Z,65.74
2018-06-13T08:25:14.689Z,66.15
2018-06-13T08:26:18.113Z,66.42
2018-06-13T08:27:21.403Z,65.95
2018-06-13T08:28:26.131Z,65.98
2018-06-13T08:29:34.129Z,66.30
2018-06-13T08:30:37.224Z,67.11
2018-06-13T08:31:40.310Z,67.25
2018-06-13T08:32:45.064Z,66.37
2018-06-13T08:33:51.457Z,66.40
2018-06-13T08:34:55.369Z,66.48
2018-06-13T08:36:01.861Z,65.72
2018-06-13T08:37:05.928Z,65.13
2018-06-13T08:38:09.083Z,65.65
2018-06-13T08:40:24.313Z,65.22
2018-06-13T08:41:28.773Z,65.33
2018-06-13T08:42:33.538Z,65.10
2018-06-13T08:43:38.108Z,64.59
2018-06-13T08:44:43.240Z,63.89
2018-06-13T08:45:46.798Z,63.43
2018-06-13T08:46:51.821Z,63.97
2018-06-13T08:47:56.807Z,63.60
2018-06-13T08:49:00.015Z,62.96
2018-06-13T08:50:03.051Z,63.58
2018-06-13T08:51:11.754Z,61.99
2018-06-13T08:52:15.857Z,61.25
2018-06-13T08:53:18.886Z,61.62
2018-06-13T08:54:23.328Z,61.21
2018-06-13T08:55:28.564Z,61.65
2018-06-13T08:56:35.069Z,61.72
2018-06-13T08:57:43.740Z,60.76
2018-06-13T08:58:46.881Z,60.51
2018-06-13T08:59:49.988Z,60.92
2018-06-13T09:00:56.913Z,60.04
2018-06-13T09:02:01.327Z,59.68
2018-06-13T09:03:04.549Z,58.95
2018-06-13T09:04:09.553Z,59.23
2018-06-13T09:06:24.439Z,59.64
2018-06-13T09:07:29.488Z,59.67
2018-06-13T09:11:18.478Z,59.19
2018-06-13T09:12:27.844Z,58.80
2018-06-13T09:13:32.050Z,59.48
2018-06-13T09:16:09.151Z,59.08
2018-06-13T09:17:12.211Z,59.47
2018-06-13T09:18:15.905Z,59.12
2018-06-13T09:19:20.049Z,58.63
2018-06-13T09:20:22.986Z,59.29
2018-06-13T09:21:26.713Z,58.92
2018-06-13T09:22:30.071Z,58.76
2018-06-13T09:23:35.117Z,58.76
2018-06-13T09:24:40.523Z,57.78
2018-06-13T09:25:43.798Z,58.34
2018-06-13T09:26:47.460Z,58.52
2018-06-13T09:27:50.669Z,58.31
2018-06-13T09:28:58.149Z,58.60
2018-06-13T09:30:01.313Z,59.20
2018-06-13T09:31:04.299Z,58.69
2018-06-13T09:32:19.818Z,58.31
2018-06-13T09:33:25.097Z,58.37
2018-06-13T09:34:28.734Z,58.42
2018-06-13T09:36:41.616Z,58.06
2018-06-13T09:37:44.703Z,58.42
2018-06-13T09:38:50.030Z,59.06
2018-06-13T09:39:55.023Z,58.98
2018-06-13T09:40:58.706Z,59.29
2018-06-13T09:42:03.274Z,58.40
2018-06-13T09:43:06.283Z,58.91
2018-06-13T09:44:10.337Z,59.30
2018-06-13T09:45:13.288Z,58.94
2018-06-13T09:46:16.665Z,59.59
2018-06-13T09:47:23.459Z,60.46
2018-06-13T09:48:23.877Z,59.89
2018-06-13T09:49:28.369Z,59.63
2018-06-13T09:50:33.276Z,60.07
2018-06-13T09:51:36.363Z,59.53
2018-06-13T09:52:42.326Z,59.21
2018-06-13T09:53:48.145Z,59.35
2018-06-13T09:54:51.493Z,58.83
2018-06-13T09:55:54.742Z,58.72
2018-06-13T09:56:58.148Z,59.10
2018-06-13T09:59:16.223Z,58.96
2018-06-13T10:00:27.124Z,59.31
2018-06-13T10:01:35.264Z,59.17
2018-06-13T10:02:38.839Z,59.50
2018-06-13T10:03:54.222Z,59.53
2018-06-13T10:04:59.649Z,59.57
2018-06-13T10:06:03.691Z,58.93
2018-06-13T10:07:06.693Z,58.79
2018-06-13T10:08:11.661Z,58.62
2018-06-13T10:09:14.641Z,57.68
2018-06-13T10:10:18.110Z,57.63
2018-06-13T10:20:00.501Z,59.65
2018-06-13T10:35:50.551Z,57.71
2018-06-13T10:38:06.327Z,57.84
2018-06-13T10:39:11.469Z,58.21
2018-06-13T10:40:30.280Z,58.59
2018-06-13T10:41:37.385Z,57.52
2018-06-13T10:46:39.899Z,57.99
2018-06-13T10:48:52.962Z,56.83
2018-06-13T10:49:57.595Z,55.47
2018-06-13T10:51:01.072Z,55.34
2018-06-13T10:53:21.760Z,55.23
2018-06-13T10:54:30.853Z,55.21
2018-06-13T10:55:36.548Z,55.98
2018-06-13T10:56:50.693Z,55.38
2018-06-13T10:57:58.569Z,55.50
2018-06-13T11:01:49.997Z,56.80
2018-06-13T11:02:57.233Z,56.56
2018-06-13T11:04:01.242Z,56.77
2018-06-13T11:09:12.726Z,55.98
2018-06-13T11:10:20.860Z,56.92
2018-06-13T11:15:10.480Z,56.39
2018-06-13T11:16:21.671Z,56.52
2018-06-13T11:17:26.129Z,57.10
2018-06-13T11:19:49.090Z,57.76
2018-06-13T11:22:16.490Z,57.95
2018-06-13T11:23:22.459Z,57.53
2018-06-13T11:24:32.306Z,57.41
2018-06-13T11:25:35.307Z,58.38
2018-06-13T11:26:38.557Z,58.39
2018-06-13T11:27:41.497Z,58.32
2018-06-13T11:28:49.686Z,58.19
2018-06-13T11:29:52.781Z,57.79
2018-06-13T11:30:56.712Z,57.87
2018-06-13T11:31:59.693Z,58.25
2018-06-13T11:33:02.771Z,58.24
2018-06-13T11:34:08.199Z,57.96
2018-06-13T11:35:11.527Z,57.25
2018-06-13T11:36:15.498Z,57.67
2018-06-13T11:38:36.379Z,56.92
2018-06-13T11:39:39.869Z,57.27
2018-06-13T11:40:49.644Z,57.36
2018-06-13T11:41:53.292Z,57.38
2018-06-13T11:42:56.304Z,57.20
2018-06-13T11:44:00.777Z,57.26
2018-06-13T11:45:06.471Z,57.03
2018-06-13T11:46:10.047Z,56.84
2018-06-13T11:47:17.210Z,56.72
2018-06-13T11:48:25.090Z,56.74
2018-06-13T11:49:29.298Z,56.42
2018-06-13T11:50:40.164Z,56.87
2018-06-13T11:51:47.813Z,56.53
2018-06-13T11:52:54.026Z,55.98
2018-06-13T11:53:59.434Z,56.54
2018-06-13T11:55:05.190Z,56.09
2018-06-13T11:56:08.433Z,55.48
2018-06-13T11:57:12.109Z,56.34
2018-06-13T12:00:46.341Z,55.20
2018-06-13T12:01:49.940Z,54.18
2018-06-13T12:02:53.022Z,54.48
2018-06-13T12:03:58.497Z,54.30
2018-06-13T12:05:01.511Z,53.67
2018-06-13T12:06:05.619Z,53.18
2018-06-13T12:07:11.402Z,53.93
2018-06-13T12:08:19.188Z,53.16
2018-06-13T12:09:23.959Z,53.37
2018-06-13T12:10:30.232Z,52.83
2018-06-13T12:11:35.526Z,53.34
2018-06-13T12:12:39.907Z,53.40
2018-06-13T12:13:44.684Z,53.44
2018-06-13T12:14:50.483Z,53.32
2018-06-13T12:15:55.747Z,53.91
2018-06-13T12:17:00.340Z,54.13
2018-06-13T12:18:03.402Z,53.45
2018-06-13T12:19:07.343Z,54.03
2018-06-13T12:20:11.372Z,54.17
2018-06-13T12:21:18.705Z,54.01
2018-06-13T12:22:22.200Z,54.71
2018-06-13T12:23:27.720Z,54.12
2018-06-13T12:26:02.479Z,54.77
2018-06-13T12:27:09.326Z,54.60
2018-06-13T12:28:21.546Z,54.88
2018-06-13T12:29:25.739Z,55.36
2018-06-13T12:30:30.119Z,54.38
2018-06-13T12:31:33.112Z,54.63
2018-06-13T12:32:36.066Z,55.47
2018-06-13T12:33:40.129Z,54.95
2018-06-13T12:34:47.601Z,54.48
2018-06-13T12:35:52.145Z,55.23
2018-06-13T12:36:55.689Z,55.33
2018-06-13T12:38:03.281Z,55.12
2018-06-13T12:39:07.151Z,54.85
2018-06-13T12:40:11.625Z,55.15
2018-06-13T12:41:17.733Z,54.56
2018-06-13T12:42:20.744Z,54.89
2018-06-13T12:43:26.795Z,54.47
2018-06-13T12:44:29.865Z,53.92
2018-06-13T12:45:34.843Z,53.74
2018-06-13T12:46:39.349Z,53.75
2018-06-13T12:47:51.022Z,53.53
2018-06-13T12:48:55.852Z,52.46
2018-06-13T12:50:00.195Z,52.30
2018-06-13T12:51:05.134Z,52.36
2018-06-13T12:52:18.325Z,52.20
2018-06-13T12:53:25.099Z,52.74
2018-06-13T12:54:30.406Z,52.32
2018-06-13T12:55:41.869Z,52.26
2018-06-13T12:56:47.340Z,51.26
2018-06-13T12:57:52.693Z,51.91
2018-06-13T12:58:58.965Z,52.02
2018-06-13T13:00:04.049Z,51.64
2018-06-13T13:01:08.472Z,51.18
2018-06-13T13:02:11.500Z,50.89
2018-06-13T13:03:17.685Z,50.60
2018-06-13T13:04:20.700Z,51.05
2018-06-13T13:05:26.658Z,50.68
2018-06-13T13:06:30.764Z,51.36
2018-06-13T13:07:38.680Z,50.69
2018-06-13T13:08:43.600Z,50.93
2018-06-13T13:09:47.275Z,50.82
2018-06-13T13:10:54.449Z,51.21
2018-06-13T13:13:07.441Z,50.42
2018-06-13T13:14:16.874Z,50.61
2018-06-13T13:15:19.990Z,51.30
2018-06-13T13:16:23.070Z,51.28
2018-06-13T13:17:26.116Z,50.91
2018-06-13T13:18:31.531Z,50.11
2018-06-13T13:19:39.323Z,50.07
2018-06-13T13:20:46.865Z,50.67
2018-06-13T13:21:50.734Z,50.60
2018-06-13T13:22:55.130Z,50.17
2018-06-13T13:23:59.260Z,49.07
2018-06-13T13:25:04.229Z,49.49
2018-06-13T13:26:07.788Z,50.33
2018-06-13T13:27:10.891Z,49.21
2018-06-13T13:28:14.033Z,49.52
2018-06-13T13:29:17.058Z,49.50
2018-06-13T13:30:20.088Z,49.30
2018-06-13T13:31:34.566Z,49.84
2018-06-13T13:32:38.497Z,49.36
2018-06-13T13:33:46.739Z,49.71
2018-06-13T13:34:52.325Z,49.87
2018-06-13T13:35:55.357Z,50.45
2018-06-13T13:36:59.604Z,49.50
2018-06-13T13:38:05.699Z,49.57
2018-06-13T13:39:08.841Z,49.21
2018-06-13T13:40:13.215Z,49.30
2018-06-13T13:41:51.282Z,49.88
2018-06-13T13:42:58.408Z,50.10
2018-06-13T13:44:02.902Z,50.92
2018-06-13T13:45:13.590Z,50.80
2018-06-13T13:46:17.485Z,50.82
2018-06-13T13:47:20.521Z,51.61
2018-06-13T13:48:28.696Z,51.25
2018-06-13T13:49:33.814Z,51.26
2018-06-13T13:50:38.433Z,52.60
2018-06-13T13:51:42.056Z,52.23
2018-06-13T13:52:50.564Z,52.69
2018-06-13T15:56:13.329Z,52.58
2018-06-13T16:03:58.955Z,53.07
2018-06-13T16:05:02.227Z,53.30
2018-06-13T16:06:08.411Z,53.34
2018-06-13T16:07:11.419Z,52.82
2018-06-13T16:08:20.410Z,52.95
2018-06-13T17:19:57.648Z,51.65
2018-06-13T17:21:02.003Z,51.55
2018-06-13T17:24:40.975Z,51.24
2018-06-13T17:25:45.188Z,52.38
2018-06-13T17:26:49.680Z,51.62
2018-06-13T17:27:54.371Z,51.61
2018-06-13T17:29:09.186Z,51.65
2018-06-13T17:30:21.221Z,51.67
2018-06-13T18:12:31.400Z,52.53
2018-06-13T18:13:34.489Z,52.54
2018-06-13T18:14:41.386Z,51.98
2018-06-13T18:15:45.296Z,53.06
2018-06-13T18:16:49.063Z,53.11
2018-06-13T18:17:54.483Z,52.90
2018-06-13T18:19:10.145Z,52.39
2018-06-13T18:20:18.985Z,53.26
2018-06-13T18:21:22.081Z,53.61
2018-06-13T18:22:27.348Z,52.75
2018-06-13T18:23:33.804Z,53.01
2018-06-13T18:24:38.362Z,52.76
2018-06-13T18:25:44.295Z,52.81
2018-06-13T18:26:48.502Z,52.81
2018-06-13T18:28:05.437Z,52.91
2018-06-13T18:29:09.840Z,54.02
2018-06-13T18:30:14.663Z,54.13
2018-06-13T18:31:20.486Z,53.58
2018-06-13T18:32:27.292Z,54.13
2018-06-13T18:33:30.448Z,53.60
2018-06-13T18:34:34.827Z,53.96
2018-06-13T18:35:39.024Z,53.69
2018-06-13T18:36:42.107Z,53.92
2018-06-13T18:37:45.151Z,53.63
2018-06-13T18:38:54.513Z,53.51
2018-06-13T18:41:03.952Z,53.55
2018-06-13T18:42:07.116Z,53.51
2018-06-13T18:43:14.618Z,53.63
2018-06-13T18:44:19.500Z,54.64
2018-06-13T18:45:24.488Z,54.00
2018-06-13T18:46:27.519Z,53.89
2018-06-13T18:47:32.005Z,53.59
2018-06-13T18:48:35.165Z,53.76
2018-06-13T18:49:38.951Z,53.52
2018-06-13T18:50:42.046Z,54.10
2018-06-13T18:51:46.617Z,53.92
2018-06-13T18:52:50.104Z,53.96
2018-06-13T18:53:57.073Z,53.53
2018-06-13T18:55:03.350Z,53.33
2018-06-13T18:56:06.452Z,53.05
2018-06-13T18:57:34.243Z,52.65
2018-06-13T18:58:37.335Z,53.37
2018-06-13T18:59:40.584Z,52.98
2018-06-13T19:00:44.698Z,52.65
2018-06-13T19:01:53.773Z,52.85
2018-06-13T19:02:56.984Z,53.36
2018-06-13T19:04:01.506Z,53.42
2018-06-13T19:05:09.987Z,53.82
2018-06-13T19:06:13.004Z,53.66
2018-06-13T19:07:16.043Z,53.53
2018-06-13T19:13:32.160Z,52.83
2018-06-13T19:14:37.597Z,53.67
2018-06-13T19:15:40.990Z,54.10
2018-06-13T19:16:46.099Z,53.72
2018-06-13T19:17:54.412Z,54.46
2018-06-13T19:19:08.397Z,54.19